createdAt,value
2017-02-20T10:38:18.245Z,23.78
2017-02-20T10:38:58.806Z,23.77
2017-02-20T10:39:39.353Z,23.81
2017-02-20T10:40:19.884Z,23.78
2017-02-20T10:41:00.437Z,23.85
2017-02-20T10:41:40.950Z,23.81
2017-02-20T10:42:21.533Z,23.79
2017-02-20T10:43:02.039Z,23.84
2017-02-20T10:43:42.575Z,23.85
2017-02-20T10:44:23.124Z,23.96
2017-02-20T10:45:08.597Z,23.82
2017-02-20T10:46:47.652Z,23.99
2017-02-20T10:47:28.263Z,23.93
2017-02-20T10:48:08.890Z,23.99
2017-02-20T10:48:49.422Z,23.92
2017-02-20T10:49:29.968Z,23.85
2017-02-20T10:50:10.525Z,23.97
2017-02-20T10:50:51.061Z,23.89
2017-02-20T10:51:31.657Z,23.93
2017-02-20T10:52:12.196Z,23.94
2017-02-20T10:52:52.737Z,23.9
2017-02-20T10:53:33.309Z,23.97
2017-02-20T10:54:13.849Z,24
2017-02-20T10:54:54.415Z,23.94
2017-02-20T10:55:34.964Z,23.89
2017-02-20T10:56:15.515Z,23.96
2017-02-20T10:56:56.067Z,23.99
2017-02-20T10:57:36.619Z,23.94
2017-02-20T10:58:17.160Z,23.97
2017-02-20T10:58:57.735Z,23.92
2017-02-20T10:59:39.963Z,23.97
2017-02-20T11:01:32.173Z,24.14
2017-02-20T11:02:13.349Z,24.08
2017-02-20T11:02:53.895Z,24.09
2017-02-20T11:03:34.442Z,24.04
2017-02-20T11:04:14.985Z,24.03
2017-02-20T11:04:55.532Z,23.97
2017-02-20T11:05:36.080Z,24.09
2017-02-20T11:06:16.632Z,23.96
2017-02-20T11:06:57.178Z,24
2017-02-20T11:07:37.726Z,23.94
2017-02-20T11:08:18.253Z,24.04
2017-02-20T11:08:58.927Z,24.02
2017-02-20T11:09:39.496Z,23.96
2017-02-20T11:10:20.041Z,24.04
2017-02-20T11:11:00.592Z,24
2017-02-20T11:11:41.139Z,23.94
2017-02-20T11:12:21.707Z,24.03
2017-02-20T11:13:02.352Z,24.02
2017-02-20T11:13:42.900Z,23.99
2017-02-20T11:14:23.489Z,24.07
2017-02-20T11:15:04.201Z,23.93
2017-02-20T11:15:53.589Z,24.08
2017-02-20T11:16:46.614Z,24.09
2017-02-20T11:17:31.027Z,23.97
2017-02-20T11:18:14.039Z,24.02
2017-02-20T11:18:54.588Z,24.07
2017-02-20T11:19:35.156Z,23.96
2017-02-20T11:20:15.720Z,24.09
2017-02-20T11:20:56.271Z,24.03
2017-02-20T11:21:36.819Z,24.11
2017-02-20T11:22:17.370Z,24.12
2017-02-20T11:22:57.921Z,23.94
2017-02-20T11:23:38.468Z,24.12
2017-02-20T11:24:19.747Z,24.03
2017-02-20T11:25:00.292Z,24.11
2017-02-20T11:25:40.834Z,24.11
2017-02-20T11:26:21.386Z,24.14
2017-02-20T11:27:01.939Z,24.17
2017-02-20T11:27:42.488Z,24.12
2017-02-20T11:28:23.198Z,24.12
2017-02-20T11:29:03.801Z,24.15
2017-02-20T11:29:44.441Z,24.22
2017-02-20T11:30:24.991Z,24.18
2017-02-20T11:31:05.690Z,24.19
2017-02-20T11:31:46.208Z,24.21
2017-02-20T11:32:26.760Z,24.21
2017-02-20T11:33:07.359Z,24.21
2017-02-20T11:33:47.946Z,24.24
2017-02-20T11:34:28.480Z,24.26
2017-02-20T11:35:09.043Z,24.19
2017-02-20T11:35:49.619Z,24.22
2017-02-20T11:36:30.173Z,24.19
2017-02-20T11:37:10.719Z,24.21
2017-02-20T11:37:51.252Z,24.29
2017-02-20T11:38:31.874Z,24.19
2017-02-20T11:39:12.432Z,24.26
2017-02-20T11:39:52.977Z,24.18
2017-02-20T11:40:33.527Z,24.29
2017-02-20T11:41:14.077Z,24.29
2017-02-20T11:41:54.727Z,24.24
2017-02-20T11:42:35.271Z,24.3
2017-02-20T11:43:15.874Z,24.24
2017-02-20T11:43:56.425Z,24.24
2017-02-20T11:44:36.977Z,24.39
2017-02-20T11:45:17.592Z,24.33
2017-02-20T11:45:58.138Z,24.36
2017-02-20T11:46:39.668Z,24.42
2017-02-20T11:47:20.224Z,24.4
2017-02-20T11:48:00.772Z,24.4
2017-02-20T11:50:18.636Z,24.33
2017-02-20T11:50:59.238Z,24.32
2017-02-20T11:51:39.780Z,24.27
2017-02-20T11:52:20.339Z,24.21
2017-02-20T11:53:00.884Z,24.17
2017-02-20T11:53:41.432Z,24.11
2017-02-20T11:54:21.978Z,24.09
2017-02-20T11:55:02.538Z,24.08
2017-02-20T11:55:43.074Z,24.02
2017-02-20T11:56:23.616Z,24.04
2017-02-20T11:57:04.162Z,23.96
2017-02-20T11:57:44.708Z,23.96
2017-02-20T11:58:25.254Z,23.94
2017-02-20T11:59:05.807Z,23.92
2017-02-20T11:59:46.354Z,23.93
2017-02-20T12:00:26.903Z,23.78
2017-02-20T12:01:07.447Z,23.77
2017-02-20T12:01:47.993Z,23.78
2017-02-20T12:02:28.586Z,23.72
2017-02-20T13:05:05.692Z,22.57
2017-02-20T13:05:46.284Z,22.46
2017-02-20T13:06:26.886Z,22.41
2017-02-20T13:07:07.481Z,22.39
2017-02-20T13:07:48.097Z,22.34
2017-02-20T13:08:29.552Z,22.29
2017-02-20T13:09:10.367Z,22.18
2017-02-20T13:09:50.993Z,22.16
2017-02-20T13:10:31.612Z,22.11
2017-02-20T13:11:12.209Z,22.05
2017-02-20T13:11:52.837Z,22.02
2017-02-20T13:12:33.432Z,22.02
2017-02-20T13:13:14.053Z,21.93
2017-02-20T13:13:54.684Z,21.99
2017-02-20T13:14:35.309Z,21.89
2017-02-20T13:15:15.919Z,21.83
2017-02-20T13:15:56.529Z,21.78
2017-02-20T13:16:37.127Z,21.8
2017-02-20T13:17:17.714Z,21.89
2017-02-20T13:17:58.344Z,21.83
2017-02-20T13:18:38.935Z,21.78
2017-02-20T13:19:19.531Z,21.77
2017-02-20T13:20:00.142Z,21.78
2017-02-20T13:20:40.752Z,21.8
2017-02-20T13:21:21.359Z,21.8
2017-02-20T13:22:01.980Z,21.74
2017-02-20T13:22:42.588Z,21.76
2017-02-20T13:23:23.200Z,21.62
2017-02-20T13:24:03.780Z,21.7
2017-02-20T13:24:44.376Z,21.64
2017-02-20T13:25:24.966Z,21.62
2017-02-20T13:26:05.541Z,21.66
2017-02-20T13:26:46.132Z,21.58
2017-02-20T13:27:26.699Z,21.58
2017-02-20T13:28:07.266Z,21.61
2017-02-20T13:28:47.829Z,21.66
2017-02-20T13:29:28.414Z,21.68
2017-02-20T13:30:09.026Z,21.67
2017-02-20T13:30:49.626Z,21.7
2017-02-20T13:31:30.829Z,21.68
2017-02-20T13:32:11.466Z,21.64
2017-02-20T13:32:52.054Z,21.68
2017-02-20T13:33:32.802Z,21.71
2017-02-20T13:34:13.365Z,21.62
2017-02-20T13:34:53.967Z,21.71
2017-02-20T13:35:34.549Z,21.7
2017-02-20T13:36:15.138Z,21.64
2017-02-20T13:36:55.843Z,21.62
2017-02-20T13:37:36.445Z,21.74
2017-02-20T13:38:18.740Z,21.73
2017-02-20T13:39:00.761Z,21.9
2017-02-20T13:39:42.758Z,22.04
2017-02-20T13:40:22.748Z,22.14
2017-02-20T13:41:03.339Z,22.23
2017-02-20T13:41:43.904Z,22.36
2017-02-20T13:42:24.441Z,22.48
2017-02-20T13:43:05.024Z,22.55
2017-02-20T13:43:45.632Z,22.69
2017-02-20T13:44:26.210Z,22.75
2017-02-20T13:45:06.817Z,22.82
2017-02-20T13:45:47.416Z,22.81
2017-02-20T13:46:28.001Z,22.82
2017-02-20T13:47:08.563Z,22.82
